sensor_id;sensor_type;location;lat;lon;timestamp;pressure;altitude;pressure_sealevel;temperature;humidity
51460;BME280;37534;39.772;2.718;2022-07-25T00:01:38;101229.91;;;28.46;38.76
51460;BME280;37534;39.772;2.718;2022-07-25T00:04:03;101226.47;;;28.36;40.33
51460;BME280;37534;39.772;2.718;2022-07-25T00:06:29;101230.25;;;28.23;41.74
51460;BME280;37534;39.772;2.718;2022-07-25T00:08:56;101227.44;;;28.35;40.94
51460;BME280;37534;39.772;2.718;2022-07-25T00:11:21;101222.44;;;28.12;40.70
51460;BME280;37534;39.772;2.718;2022-07-25T00:13:46;101219.97;;;28.11;42.80
51460;BME280;37534;39.772;2.718;2022-07-25T00:16:12;101234.19;;;28.10;47.82
51460;BME280;37534;39.772;2.718;2022-07-25T00:18:38;101225.13;;;27.93;47.55
51460;BME280;37534;39.772;2.718;2022-07-25T00:21:04;101235.13;;;27.89;54.19
51460;BME280;37534;39.772;2.718;2022-07-25T00:23:29;101224.28;;;27.92;50.56
51460;BME280;37534;39.772;2.718;2022-07-25T00:25:55;101229.72;;;28.10;51.20
51460;BME280;37534;39.772;2.718;2022-07-25T00:28:20;101223.56;;;28.10;46.36
51460;BME280;37534;39.772;2.718;2022-07-25T00:30:46;101213.28;;;27.97;44.34
51460;BME280;37534;39.772;2.718;2022-07-25T00:33:12;101227.47;;;27.76;43.91
51460;BME280;37534;39.772;2.718;2022-07-25T00:35:38;101214.38;;;27.65;42.46
51460;BME280;37534;39.772;2.718;2022-07-25T00:38:03;101221.34;;;27.56;43.30
51460;BME280;37534;39.772;2.718;2022-07-25T00:40:29;101210.16;;;27.43;44.94
51460;BME280;37534;39.772;2.718;2022-07-25T00:42:54;101208.22;;;27.45;44.30
51460;BME280;37534;39.772;2.718;2022-07-25T00:45:20;101212.09;;;27.31;44.49
51460;BME280;37534;39.772;2.718;2022-07-25T00:47:45;101205.13;;;27.49;43.80
51460;BME280;37534;39.772;2.718;2022-07-25T00:50:11;101193.44;;;27.52;43.09
51460;BME280;37534;39.772;2.718;2022-07-25T00:52:36;101188.69;;;27.65;42.67
51460;BME280;37534;39.772;2.718;2022-07-25T00:55:03;101194.53;;;27.49;44.92
51460;BME280;37534;39.772;2.718;2022-07-25T00:57:29;101200.13;;;27.37;44.60
51460;BME280;37534;39.772;2.718;2022-07-25T00:59:54;101185.97;;;27.26;46.06
51460;BME280;37534;39.772;2.718;2022-07-25T01:02:20;101197.47;;;27.37;46.60
51460;BME280;37534;39.772;2.718;2022-07-25T01:04:45;101188.75;;;27.25;46.61
51460;BME280;37534;39.772;2.718;2022-07-25T01:07:11;101186.13;;;27.25;45.82
51460;BME280;37534;39.772;2.718;2022-07-25T01:09:37;101198.31;;;27.47;45.29
51460;BME280;37534;39.772;2.718;2022-07-25T01:12:03;101196.22;;;27.50;45.11
51460;BME280;37534;39.772;2.718;2022-07-25T01:14:29;101184.34;;;27.35;46.46
51460;BME280;37534;39.772;2.718;2022-07-25T01:16:55;101192.31;;;27.35;46.86
51460;BME280;37534;39.772;2.718;2022-07-25T01:19:21;101178.72;;;27.19;47.43
51460;BME280;37534;39.772;2.718;2022-07-25T01:21:46;101176.34;;;27.16;47.92
51460;BME280;37534;39.772;2.718;2022-07-25T01:24:12;101186.03;;;27.36;46.33
51460;BME280;37534;39.772;2.718;2022-07-25T01:26:37;101165.75;;;27.16;47.78
51460;BME280;37534;39.772;2.718;2022-07-25T01:29:03;101178.16;;;27.25;45.86
51460;BME280;37534;39.772;2.718;2022-07-25T01:31:29;101158.09;;;27.22;46.42
51460;BME280;37534;39.772;2.718;2022-07-25T01:33:54;101171.69;;;27.29;45.72
51460;BME280;37534;39.772;2.718;2022-07-25T01:36:20;101156.75;;;27.47;45.66
51460;BME280;37534;39.772;2.718;2022-07-25T01:38:45;101158.00;;;27.34;46.21
51460;BME280;37534;39.772;2.718;2022-07-25T01:41:11;101162.91;;;27.58;45.10
51460;BME280;37534;39.772;2.718;2022-07-25T01:43:37;101154.09;;;27.38;45.86
51460;BME280;37534;39.772;2.718;2022-07-25T01:46:02;101157.84;;;27.35;46.59
51460;BME280;37534;39.772;2.718;2022-07-25T01:48:28;101160.25;;;27.38;48.68
51460;BME280;37534;39.772;2.718;2022-07-25T01:50:53;101157.16;;;27.33;49.75
51460;BME280;37534;39.772;2.718;2022-07-25T01:53:19;101155.78;;;27.39;48.98
51460;BME280;37534;39.772;2.718;2022-07-25T01:55:45;101168.31;;;27.46;46.65
51460;BME280;37534;39.772;2.718;2022-07-25T01:58:10;101151.84;;;27.62;44.84
51460;BME280;37534;39.772;2.718;2022-07-25T02:00:36;101140.72;;;27.49;44.80
51460;BME280;37534;39.772;2.718;2022-07-25T02:03:02;101134.56;;;28.35;40.12
51460;BME280;37534;39.772;2.718;2022-07-25T02:05:46;101121.88;;;28.29;43.75
51460;BME280;37534;39.772;2.718;2022-07-25T02:08:12;101130.59;;;28.11;44.39
51460;BME280;37534;39.772;2.718;2022-07-25T02:10:37;101126.19;;;27.92;44.27
51460;BME280;37534;39.772;2.718;2022-07-25T02:13:03;101127.84;;;27.83;43.22
51460;BME280;37534;39.772;2.718;2022-07-25T02:15:29;101121.69;;;27.93;41.77
51460;BME280;37534;39.772;2.718;2022-07-25T02:17:54;101121.88;;;28.29;41.28
51460;BME280;37534;39.772;2.718;2022-07-25T02:20:20;101114.41;;;28.14;43.15
51460;BME280;37534;39.772;2.718;2022-07-25T02:22:45;101111.25;;;27.91;44.16
51460;BME280;37534;39.772;2.718;2022-07-25T02:25:11;101101.03;;;27.86;42.27
51460;BME280;37534;39.772;2.718;2022-07-25T02:27:36;101106.78;;;27.92;42.89
51460;BME280;37534;39.772;2.718;2022-07-25T02:30:04;101114.75;;;27.72;43.23
51460;BME280;37534;39.772;2.718;2022-07-25T02:32:30;101095.88;;;27.85;41.05
51460;BME280;37534;39.772;2.718;2022-07-25T02:34:55;101107.06;;;27.98;41.13
51460;BME280;37534;39.772;2.718;2022-07-25T02:37:23;101094.88;;;28.05;41.03
51460;BME280;37534;39.772;2.718;2022-07-25T02:39:48;101097.94;;;28.11;40.18
51460;BME280;37534;39.772;2.718;2022-07-25T02:42:14;101091.16;;;28.26;38.88
51460;BME280;37534;39.772;2.718;2022-07-25T02:44:40;101097.47;;;28.25;39.56
51460;BME280;37534;39.772;2.718;2022-07-25T02:47:05;101087.97;;;28.22;39.65
51460;BME280;37534;39.772;2.718;2022-07-25T02:49:31;101090.28;;;28.35;39.10
51460;BME280;37534;39.772;2.718;2022-07-25T02:51:56;101091.06;;;28.45;37.93
51460;BME280;37534;39.772;2.718;2022-07-25T02:54:22;101086.28;;;28.59;37.08
51460;BME280;37534;39.772;2.718;2022-07-25T02:56:47;101090.34;;;28.81;36.25
51460;BME280;37534;39.772;2.718;2022-07-25T02:59:13;101085.81;;;29.27;35.43
51460;BME280;37534;39.772;2.718;2022-07-25T03:01:39;101078.81;;;29.70;34.12
51460;BME280;37534;39.772;2.718;2022-07-25T03:04:04;101091.63;;;29.93;34.81
51460;BME280;37534;39.772;2.718;2022-07-25T03:06:30;101083.63;;;29.85;34.23
51460;BME280;37534;39.772;2.718;2022-07-25T03:08:55;101089.03;;;29.75;33.18
51460;BME280;37534;39.772;2.718;2022-07-25T03:11:21;101077.28;;;29.86;32.58
51460;BME280;37534;39.772;2.718;2022-07-25T03:13:46;101088.72;;;30.04;33.66
51460;BME280;37534;39.772;2.718;2022-07-25T03:16:12;101095.19;;;30.02;33.16
51460;BME280;37534;39.772;2.718;2022-07-25T03:18:37;101085.78;;;29.89;32.21
51460;BME280;37534;39.772;2.718;2022-07-25T03:21:03;101092.44;;;29.85;32.77
51460;BME280;37534;39.772;2.718;2022-07-25T03:23:29;101086.97;;;29.95;32.99
51460;BME280;37534;39.772;2.718;2022-07-25T03:25:55;101087.34;;;30.00;32.15
51460;BME280;37534;39.772;2.718;2022-07-25T03:28:21;101096.44;;;29.89;32.53
51460;BME280;37534;39.772;2.718;2022-07-25T03:30:47;101095.03;;;29.59;32.38
51460;BME280;37534;39.772;2.718;2022-07-25T03:33:12;101087.19;;;29.31;33.09
51460;BME280;37534;39.772;2.718;2022-07-25T03:35:38;101100.78;;;29.10;33.90
51460;BME280;37534;39.772;2.718;2022-07-25T03:38:05;101085.03;;;28.81;33.91
51460;BME280;37534;39.772;2.718;2022-07-25T03:40:30;101089.03;;;28.85;33.58
51460;BME280;37534;39.772;2.718;2022-07-25T03:42:56;101084.56;;;28.68;34.15
51460;BME280;37534;39.772;2.718;2022-07-25T03:45:22;101094.25;;;28.59;34.63
51460;BME280;37534;39.772;2.718;2022-07-25T03:47:47;101076.09;;;28.27;35.44
51460;BME280;37534;39.772;2.718;2022-07-25T03:50:13;101087.97;;;28.22;35.28
51460;BME280;37534;39.772;2.718;2022-07-25T03:52:39;101084.16;;;28.35;33.63
51460;BME280;37534;39.772;2.718;2022-07-25T03:55:06;101082.09;;;28.56;33.71
51460;BME280;37534;39.772;2.718;2022-07-25T03:57:32;101088.97;;;28.49;34.04
51460;BME280;37534;39.772;2.718;2022-07-25T03:59:58;101083.31;;;28.34;34.74
51460;BME280;37534;39.772;2.718;2022-07-25T04:02:23;101094.00;;;28.15;34.90
51460;BME280;37534;39.772;2.718;2022-07-25T04:04:49;101092.31;;;28.14;34.77
51460;BME280;37534;39.772;2.718;2022-07-25T04:07:16;101077.09;;;28.53;32.85
51460;BME280;37534;39.772;2.718;2022-07-25T04:09:41;101083.50;;;28.60;32.87
51460;BME280;37534;39.772;2.718;2022-07-25T04:12:07;101083.38;;;28.80;31.94
51460;BME280;37534;39.772;2.718;2022-07-25T04:14:33;101074.69;;;28.78;31.93
51460;BME280;37534;39.772;2.718;2022-07-25T04:16:58;101081.59;;;28.71;32.24
51460;BME280;37534;39.772;2.718;2022-07-25T04:19:25;101085.41;;;28.68;32.71
51460;BME280;37534;39.772;2.718;2022-07-25T04:21:51;101062.25;;;28.60;32.70
51460;BME280;37534;39.772;2.718;2022-07-25T04:24:17;101074.25;;;28.65;32.30
51460;BME280;37534;39.772;2.718;2022-07-25T04:26:43;101083.72;;;28.39;33.18
51460;BME280;37534;39.772;2.718;2022-07-25T04:29:08;101073.59;;;28.25;32.89
51460;BME280;37534;39.772;2.718;2022-07-25T04:31:34;101084.78;;;28.19;32.89
51460;BME280;37534;39.772;2.718;2022-07-25T04:33:59;101067.34;;;28.16;32.58
51460;BME280;37534;39.772;2.718;2022-07-25T04:36:24;101082.78;;;28.31;32.38
51460;BME280;37534;39.772;2.718;2022-07-25T04:38:51;101079.72;;;28.25;32.09
51460;BME280;37534;39.772;2.718;2022-07-25T04:41:17;101081.97;;;28.20;32.17
51460;BME280;37534;39.772;2.718;2022-07-25T04:43:42;101094.56;;;28.09;34.30
51460;BME280;37534;39.772;2.718;2022-07-25T04:46:08;101080.97;;;27.74;34.21
51460;BME280;37534;39.772;2.718;2022-07-25T04:48:34;101070.41;;;27.55;33.83
51460;BME280;37534;39.772;2.718;2022-07-25T04:50:59;101075.69;;;27.74;33.16
51460;BME280;37534;39.772;2.718;2022-07-25T04:53:25;101086.28;;;27.74;33.13
51460;BME280;37534;39.772;2.718;2022-07-25T04:55:51;101068.69;;;27.73;33.49
51460;BME280;37534;39.772;2.718;2022-07-25T04:58:16;101081.94;;;27.83;32.57
51460;BME280;37534;39.772;2.718;2022-07-25T05:00:42;101075.69;;;27.74;33.26
51460;BME280;37534;39.772;2.718;2022-07-25T05:03:08;101076.47;;;28.04;32.65
51460;BME280;37534;39.772;2.718;2022-07-25T05:05:34;101076.34;;;27.96;33.39
51460;BME280;37534;39.772;2.718;2022-07-25T05:07:59;101080.38;;;28.00;33.49
51460;BME280;37534;39.772;2.718;2022-07-25T05:10:26;101085.84;;;27.98;33.75
51460;BME280;37534;39.772;2.718;2022-07-25T05:12:52;101070.28;;;28.13;32.33
51460;BME280;37534;39.772;2.718;2022-07-25T05:15:18;101082.94;;;28.19;33.53
51460;BME280;37534;39.772;2.718;2022-07-25T05:17:44;101075.88;;;28.10;33.92
51460;BME280;37534;39.772;2.718;2022-07-25T05:20:10;101086.53;;;28.00;34.63
51460;BME280;37534;39.772;2.718;2022-07-25T05:22:36;101086.56;;;27.81;35.19
51460;BME280;37534;39.772;2.718;2022-07-25T05:25:01;101086.66;;;27.99;34.11
51460;BME280;37534;39.772;2.718;2022-07-25T05:27:27;101085.84;;;27.98;34.59
51460;BME280;37534;39.772;2.718;2022-07-25T05:29:53;101092.66;;;28.01;34.56
51460;BME280;37534;39.772;2.718;2022-07-25T05:32:18;101096.00;;;28.03;34.22
51460;BME280;37534;39.772;2.718;2022-07-25T05:34:44;101092.66;;;28.01;34.33
51460;BME280;37534;39.772;2.718;2022-07-25T05:37:10;101103.72;;;28.34;34.51
51460;BME280;37534;39.772;2.718;2022-07-25T05:39:35;101093.81;;;28.26;35.34
51460;BME280;37534;39.772;2.718;2022-07-25T05:42:04;101114.34;;;28.24;35.88
51460;BME280;37534;39.772;2.718;2022-07-25T05:44:30;101109.78;;;28.16;36.79
51460;BME280;37534;39.772;2.718;2022-07-25T05:46:55;101100.34;;;28.04;36.83
51460;BME280;37534;39.772;2.718;2022-07-25T05:49:21;101107.63;;;27.82;38.09
51460;BME280;37534;39.772;2.718;2022-07-25T05:51:47;101115.31;;;27.76;37.68
51460;BME280;37534;39.772;2.718;2022-07-25T05:54:12;101110.56;;;27.69;38.30
51460;BME280;37534;39.772;2.718;2022-07-25T05:56:38;101113.06;;;27.91;40.91
51460;BME280;37534;39.772;2.718;2022-07-25T05:59:03;101113.84;;;28.11;44.11
51460;BME280;37534;39.772;2.718;2022-07-25T06:01:29;101118.97;;;28.22;39.65
51460;BME280;37534;39.772;2.718;2022-07-25T06:03:54;101115.59;;;28.30;42.37
51460;BME280;37534;39.772;2.718;2022-07-25T06:06:20;101110.09;;;28.41;42.38
51460;BME280;37534;39.772;2.718;2022-07-25T06:08:45;101118.44;;;28.56;42.86
51460;BME280;37534;39.772;2.718;2022-07-25T06:11:11;101121.34;;;28.62;42.21
51460;BME280;37534;39.772;2.718;2022-07-25T06:13:36;101129.31;;;28.62;44.02
51460;BME280;37534;39.772;2.718;2022-07-25T06:16:02;101124.28;;;28.59;41.57
51460;BME280;37534;39.772;2.718;2022-07-25T06:18:28;101127.59;;;28.71;41.62
51460;BME280;37534;39.772;2.718;2022-07-25T06:20:54;101136.78;;;28.77;42.72
51460;BME280;37534;39.772;2.718;2022-07-25T06:23:19;101123.56;;;28.85;41.03
51460;BME280;37534;39.772;2.718;2022-07-25T06:25:45;101133.53;;;29.01;42.35
51460;BME280;37534;39.772;2.718;2022-07-25T06:28:14;101144.28;;;29.27;40.26
51460;BME280;37534;39.772;2.718;2022-07-25T06:30:41;101147.03;;;29.35;41.02
51460;BME280;37534;39.772;2.718;2022-07-25T06:33:07;101147.25;;;29.42;40.80
51460;BME280;37534;39.772;2.718;2022-07-25T06:35:33;101141.09;;;29.42;40.33
51460;BME280;37534;39.772;2.718;2022-07-25T06:37:59;101145.19;;;29.54;41.67
51460;BME280;37534;39.772;2.718;2022-07-25T06:40:24;101151.25;;;29.64;42.46
51460;BME280;37534;39.772;2.718;2022-07-25T06:42:50;101146.56;;;29.76;42.85
51460;BME280;37534;39.772;2.718;2022-07-25T06:45:15;101143.63;;;29.87;42.54
51460;BME280;37534;39.772;2.718;2022-07-25T06:47:42;101154.34;;;29.95;42.44
51460;BME280;37534;39.772;2.718;2022-07-25T06:50:10;101147.25;;;30.04;42.22
51460;BME280;37534;39.772;2.718;2022-07-25T06:52:37;101149.63;;;30.16;40.79
51460;BME280;37534;39.772;2.718;2022-07-25T06:55:03;101152.34;;;30.24;39.80
51460;BME280;37534;39.772;2.718;2022-07-25T06:57:29;101153.06;;;30.34;36.84
51460;BME280;37534;39.772;2.718;2022-07-25T06:59:55;101142.53;;;30.50;38.42
51460;BME280;37534;39.772;2.718;2022-07-25T07:02:20;101149.91;;;30.65;37.81
51460;BME280;37534;39.772;2.718;2022-07-25T07:04:46;101133.63;;;30.76;37.62
51460;BME280;37534;39.772;2.718;2022-07-25T07:07:12;101139.31;;;30.89;38.24
51460;BME280;37534;39.772;2.718;2022-07-25T07:09:37;101126.38;;;31.03;37.95
51460;BME280;37534;39.772;2.718;2022-07-25T07:12:03;101129.56;;;31.15;36.01
51460;BME280;37534;39.772;2.718;2022-07-25T07:14:29;101144.38;;;31.34;34.34
51460;BME280;37534;39.772;2.718;2022-07-25T07:16:54;101140.75;;;31.51;31.56
51460;BME280;37534;39.772;2.718;2022-07-25T07:19:20;101137.59;;;31.64;32.93
51460;BME280;37534;39.772;2.718;2022-07-25T07:21:45;101132.59;;;31.86;34.17
51460;BME280;37534;39.772;2.718;2022-07-25T07:24:11;101137.72;;;32.03;35.72
51460;BME280;37534;39.772;2.718;2022-07-25T07:26:37;101129.03;;;32.18;36.37
51460;BME280;37534;39.772;2.718;2022-07-25T07:29:02;101133.41;;;32.42;35.23
51460;BME280;37534;39.772;2.718;2022-07-25T07:31:28;101137.84;;;32.58;34.30
51460;BME280;37534;39.772;2.718;2022-07-25T07:33:54;101133.81;;;32.70;32.05
51460;BME280;37534;39.772;2.718;2022-07-25T07:36:20;101131.41;;;32.84;32.82
51460;BME280;37534;39.772;2.718;2022-07-25T07:38:46;101130.97;;;33.03;31.25
51460;BME280;37534;39.772;2.718;2022-07-25T07:41:13;101152.56;;;33.25;31.08
51460;BME280;37534;39.772;2.718;2022-07-25T07:43:38;101141.25;;;33.38;28.32
51460;BME280;37534;39.772;2.718;2022-07-25T07:46:04;101135.97;;;33.52;26.08
51460;BME280;37534;39.772;2.718;2022-07-25T07:48:30;101144.84;;;33.68;26.11
51460;BME280;37534;39.772;2.718;2022-07-25T07:50:56;101148.03;;;33.86;25.61
51460;BME280;37534;39.772;2.718;2022-07-25T07:53:22;101130.78;;;33.89;25.64
51460;BME280;37534;39.772;2.718;2022-07-25T07:56:07;101134.84;;;34.00;25.09
51460;BME280;37534;39.772;2.718;2022-07-25T07:58:33;101141.41;;;34.12;24.84
51460;BME280;37534;39.772;2.718;2022-07-25T08:00:59;101129.09;;;34.18;23.83
51460;BME280;37534;39.772;2.718;2022-07-25T08:03:25;101143.44;;;34.25;24.58
51460;BME280;37534;39.772;2.718;2022-07-25T08:05:52;101136.50;;;34.31;23.33
51460;BME280;37534;39.772;2.718;2022-07-25T08:08:18;101142.59;;;34.39;23.87
51460;BME280;37534;39.772;2.718;2022-07-25T08:10:45;101147.69;;;34.49;24.43
51460;BME280;37534;39.772;2.718;2022-07-25T08:13:20;101140.38;;;34.58;24.21
51460;BME280;37534;39.772;2.718;2022-07-25T08:15:48;101144.06;;;34.57;23.23
51460;BME280;37534;39.772;2.718;2022-07-25T08:18:14;101155.59;;;34.57;23.99
51460;BME280;37534;39.772;2.718;2022-07-25T08:20:40;101155.69;;;34.64;23.25
51460;BME280;37534;39.772;2.718;2022-07-25T08:23:07;101159.56;;;34.76;23.29
51460;BME280;37534;39.772;2.718;2022-07-25T08:25:37;101153.00;;;34.79;22.87
51460;BME280;37534;39.772;2.718;2022-07-25T08:28:03;101159.66;;;34.83;23.22
51460;BME280;37534;39.772;2.718;2022-07-25T08:30:31;101165.72;;;34.92;23.28
51460;BME280;37534;39.772;2.718;2022-07-25T08:32:59;101157.31;;;34.95;23.74
51460;BME280;37534;39.772;2.718;2022-07-25T08:35:26;101164.84;;;35.06;23.72
51460;BME280;37534;39.772;2.718;2022-07-25T08:37:52;101170.31;;;35.19;23.70
51460;BME280;37534;39.772;2.718;2022-07-25T08:40:21;101172.63;;;35.44;22.77
51460;BME280;37534;39.772;2.718;2022-07-25T08:42:48;101157.06;;;35.54;22.43
51460;BME280;37534;39.772;2.718;2022-07-25T08:45:15;101157.50;;;35.58;22.29
51460;BME280;37534;39.772;2.718;2022-07-25T08:47:44;101167.47;;;35.64;22.47
51460;BME280;37534;39.772;2.718;2022-07-25T08:50:12;101158.31;;;35.58;22.57
51460;BME280;37534;39.772;2.718;2022-07-25T08:52:39;101154.44;;;35.61;22.25
51460;BME280;37534;39.772;2.718;2022-07-25T08:55:09;101153.34;;;35.77;22.61
51460;BME280;37534;39.772;2.718;2022-07-25T08:57:36;101155.66;;;35.87;22.02
51460;BME280;37534;39.772;2.718;2022-07-25T09:00:06;101150.34;;;35.93;22.41
51460;BME280;37534;39.772;2.718;2022-07-25T09:02:32;101163.63;;;36.02;21.53
51460;BME280;37534;39.772;2.718;2022-07-25T09:04:58;101158.47;;;36.07;22.39
51460;BME280;37534;39.772;2.718;2022-07-25T09:07:40;101158.19;;;36.23;22.06
51460;BME280;37534;39.772;2.718;2022-07-25T09:12:38;101156.16;;;36.32;21.83
51460;BME280;37534;39.772;2.718;2022-07-25T09:15:04;101161.78;;;36.44;21.95
51460;BME280;37534;39.772;2.718;2022-07-25T09:17:29;101156.44;;;36.50;21.98
51460;BME280;37534;39.772;2.718;2022-07-25T09:19:56;101159.34;;;36.56;21.46
51460;BME280;37534;39.772;2.718;2022-07-25T09:22:22;101161.44;;;36.67;21.62
51460;BME280;37534;39.772;2.718;2022-07-25T09:24:48;101165.25;;;36.72;21.64
51460;BME280;37534;39.772;2.718;2022-07-25T09:27:14;101168.56;;;36.88;24.22
51460;BME280;37534;39.772;2.718;2022-07-25T09:29:40;101163.78;;;36.77;29.66
51460;BME280;37534;39.772;2.718;2022-07-25T09:32:17;101163.72;;;36.57;30.00
51460;BME280;37534;39.772;2.718;2022-07-25T09:34:45;101169.88;;;36.50;31.24
51460;BME280;37534;39.772;2.718;2022-07-25T09:37:13;101165.75;;;36.54;30.74
51460;BME280;37534;39.772;2.718;2022-07-25T09:39:43;101173.38;;;36.51;30.60
51460;BME280;37534;39.772;2.718;2022-07-25T09:44:42;101174.84;;;36.19;30.95
51460;BME280;37534;39.772;2.718;2022-07-25T09:47:13;101175.94;;;36.24;30.84
51460;BME280;37534;39.772;2.718;2022-07-25T09:49:40;101177.03;;;36.30;30.53
51460;BME280;37534;39.772;2.718;2022-07-25T09:52:06;101181.59;;;36.36;31.36
51460;BME280;37534;39.772;2.718;2022-07-25T09:54:32;101167.88;;;36.24;30.55
51460;BME280;37534;39.772;2.718;2022-07-25T09:56:58;101176.47;;;36.13;31.17
51460;BME280;37534;39.772;2.718;2022-07-25T09:59:24;101172.69;;;36.01;30.92
51460;BME280;37534;39.772;2.718;2022-07-25T10:01:59;101181.34;;;35.96;31.76
51460;BME280;37534;39.772;2.718;2022-07-25T10:07:38;101185.13;;;36.08;32.12
51460;BME280;37534;39.772;2.718;2022-07-25T10:10:06;101171.25;;;35.98;32.16
51460;BME280;37534;39.772;2.718;2022-07-25T10:12:32;101173.06;;;35.97;32.73
51460;BME280;37534;39.772;2.718;2022-07-25T10:15:08;101179.91;;;36.00;32.57
51460;BME280;37534;39.772;2.718;2022-07-25T10:17:37;101179.09;;;36.00;32.05
51460;BME280;37534;39.772;2.718;2022-07-25T10:20:05;101183.03;;;36.04;32.67
51460;BME280;37534;39.772;2.718;2022-07-25T10:22:39;101184.28;;;36.08;32.39
51460;BME280;37534;39.772;2.718;2022-07-25T10:25:16;101189.66;;;36.08;32.40
51460;BME280;37534;39.772;2.718;2022-07-25T10:27:45;101184.63;;;36.20;32.94
51460;BME280;37534;39.772;2.718;2022-07-25T10:30:43;101191.63;;;36.21;32.12
51460;BME280;37534;39.772;2.718;2022-07-25T10:33:17;101198.66;;;36.22;32.73
51460;BME280;37534;39.772;2.718;2022-07-25T10:35:44;101188.03;;;36.13;33.12
51460;BME280;37534;39.772;2.718;2022-07-25T10:38:10;101198.88;;;36.20;32.76
51460;BME280;37534;39.772;2.718;2022-07-25T10:40:42;101192.66;;;36.20;33.98
51460;BME280;37534;39.772;2.718;2022-07-25T10:43:19;101197.91;;;36.34;33.53
51460;BME280;37534;39.772;2.718;2022-07-25T10:48:24;101200.81;;;36.40;34.15
51460;BME280;37534;39.772;2.718;2022-07-25T10:50:58;101199.19;;;36.39;33.18
51460;BME280;37534;39.772;2.718;2022-07-25T10:53:33;101195.59;;;36.31;33.53
51460;BME280;37534;39.772;2.718;2022-07-25T10:56:05;101195.84;;;36.30;33.89
51460;BME280;37534;39.772;2.718;2022-07-25T10:58:55;101194.16;;;36.29;34.44
51460;BME280;37534;39.772;2.718;2022-07-25T11:03:53;101203.78;;;36.16;35.45
51460;BME280;37534;39.772;2.718;2022-07-25T11:06:36;101211.94;;;36.30;35.57
51460;BME280;37534;39.772;2.718;2022-07-25T11:11:41;101200.97;;;36.25;36.31
51460;BME280;37534;39.772;2.718;2022-07-25T11:16:47;101207.84;;;36.34;37.31
51460;BME280;37534;39.772;2.718;2022-07-25T11:19:21;101211.00;;;36.44;38.10
51460;BME280;37534;39.772;2.718;2022-07-25T11:21:57;101204.81;;;36.50;38.00
51460;BME280;37534;39.772;2.718;2022-07-25T11:24:41;101209.13;;;36.45;37.73
51460;BME280;37534;39.772;2.718;2022-07-25T11:27:09;101199.44;;;36.50;38.03
51460;BME280;37534;39.772;2.718;2022-07-25T11:29:36;101201.50;;;36.48;38.23
51460;BME280;37534;39.772;2.718;2022-07-25T11:32:07;101202.34;;;36.56;38.52
51460;BME280;37534;39.772;2.718;2022-07-25T11:34:40;101196.19;;;36.62;37.61
51460;BME280;37534;39.772;2.718;2022-07-25T11:37:08;101191.69;;;36.69;37.21
51460;BME280;37534;39.772;2.718;2022-07-25T11:39:36;101191.72;;;36.82;36.72
51460;BME280;37534;39.772;2.718;2022-07-25T11:42:07;101191.72;;;36.82;37.06
51460;BME280;37534;39.772;2.718;2022-07-25T11:44:47;101189.25;;;36.87;37.12
51460;BME280;37534;39.772;2.718;2022-07-25T11:47:28;101189.28;;;36.94;37.05
51460;BME280;37534;39.772;2.718;2022-07-25T11:49:57;101199.84;;;36.96;36.16
51460;BME280;37534;39.772;2.718;2022-07-25T11:52:35;101196.34;;;37.08;36.93
51460;BME280;37534;39.772;2.718;2022-07-25T11:55:06;101196.56;;;37.07;36.85
51460;BME280;37534;39.772;2.718;2022-07-25T11:57:40;101187.66;;;37.13;36.85
51460;BME280;37534;39.772;2.718;2022-07-25T12:00:16;101184.34;;;37.11;35.86
51460;BME280;37534;39.772;2.718;2022-07-25T12:02:43;101183.50;;;37.04;36.70
51460;BME280;37534;39.772;2.718;2022-07-25T12:05:11;101180.22;;;37.15;36.50
51460;BME280;37534;39.772;2.718;2022-07-25T12:07:40;101183.94;;;37.14;36.97
51460;BME280;37534;39.772;2.718;2022-07-25T12:10:09;101186.41;;;36.96;36.42
51460;BME280;37534;39.772;2.718;2022-07-25T12:12:51;101186.00;;;37.05;36.63
51460;BME280;37534;39.772;2.718;2022-07-25T12:15:22;101168.19;;;36.91;37.44
51460;BME280;37534;39.772;2.718;2022-07-25T12:17:49;101178.31;;;37.02;36.87
51460;BME280;37534;39.772;2.718;2022-07-25T12:20:18;101172.34;;;37.07;38.34
51460;BME280;37534;39.772;2.718;2022-07-25T12:22:44;101171.75;;;37.12;37.21
51460;BME280;37534;39.772;2.718;2022-07-25T12:25:10;101166.59;;;37.23;37.64
51460;BME280;37534;39.772;2.718;2022-07-25T12:27:36;101165.34;;;37.19;37.39
51460;BME280;37534;39.772;2.718;2022-07-25T12:30:03;101172.81;;;37.31;37.44
51460;BME280;37534;39.772;2.718;2022-07-25T12:32:29;101151.13;;;36.64;37.75
51460;BME280;37534;39.772;2.718;2022-07-25T12:34:54;101158.44;;;36.90;38.03
51460;BME280;37534;39.772;2.718;2022-07-25T12:37:20;101154.94;;;36.89;37.08
51460;BME280;37534;39.772;2.718;2022-07-25T12:39:46;101154.94;;;36.96;36.25
51460;BME280;37534;39.772;2.718;2022-07-25T12:42:12;101150.59;;;36.88;36.43
51460;BME280;37534;39.772;2.718;2022-07-25T12:44:37;101153.31;;;37.02;37.61
51460;BME280;37534;39.772;2.718;2022-07-25T12:47:03;101152.69;;;37.06;36.67
51460;BME280;37534;39.772;2.718;2022-07-25T12:49:28;101156.16;;;36.94;35.90
51460;BME280;37534;39.772;2.718;2022-07-25T12:51:54;101155.34;;;36.80;36.11
51460;BME280;37534;39.772;2.718;2022-07-25T12:54:20;101164.81;;;36.69;36.86
51460;BME280;37534;39.772;2.718;2022-07-25T12:56:45;101163.06;;;36.54;36.65
51460;BME280;37534;39.772;2.718;2022-07-25T12:59:11;101152.66;;;36.38;37.75
51460;BME280;37534;39.772;2.718;2022-07-25T13:01:37;101162.78;;;36.36;37.91
51460;BME280;37534;39.772;2.718;2022-07-25T13:04:02;101160.16;;;36.49;38.44
51460;BME280;37534;39.772;2.718;2022-07-25T13:06:32;101165.53;;;36.49;38.11
51460;BME280;37534;39.772;2.718;2022-07-25T13:08:57;101166.41;;;36.63;37.14